Forside
METAR-TAF:

METAR-TAF

Lufthavne :

Atlantic, Iowa, USA

Breddekreds: 41-24N, længdekreds: 095-03W, højde: 360 m

Aktuelle vejr

Denne rapport blev lavet for 22 minutter siden, kl. 17:15 UTC
Vind 17 kt fra østsydøst med vindstød på up til 23 kt
Temperatur -10°C
Fugtighed 79%
Tryk 1019 hPa
Sigt: 16.1 km
skyfri

METAR: KAIO 211715Z AUTO 12017G23KT 10SM CLR M10/M13 A3010 RMK AO2

Tid: 11:37 (17:37 UTC)


TAF: fraværende

Vejrobservationer og prognoser fra mere end 4000 lufthavne (METAR og TAF).

De gule og røde prikker repræsenterer de meteorologiske stationer.

Flyt musen over at se navnet på stationen.

Så klik over at se vejr observationer og prognoser.

At skifte det kort: Klik på de grønne knapper med et sort kors for at zoome ind; på den grønne knap med en bindestreg for at zoome ud; eller på de grønne pile for tilstødende kort.


METAR-TAF: